sensor_id;sensor_type;location;lat;lon;timestamp;pressure;altitude;pressure_sealevel;temperature;humidity
75938;BME280;64615;32.062;34.834;2022-10-30T00:00:29;100586.41;;;25.55;59.74
75938;BME280;64615;32.062;34.834;2022-10-30T00:02:55;100583.94;;;25.54;59.75
75938;BME280;64615;32.062;34.834;2022-10-30T00:05:23;100590.50;;;25.53;60.00
75938;BME280;64615;32.062;34.834;2022-10-30T00:07:49;100586.13;;;25.52;60.05
75938;BME280;64615;32.062;34.834;2022-10-30T00:10:16;100588.28;;;25.55;60.23
75938;BME280;64615;32.062;34.834;2022-10-30T00:12:43;100588.28;;;25.60;59.94
75938;BME280;64615;32.062;34.834;2022-10-30T00:15:09;100590.47;;;25.63;59.55
75938;BME280;64615;32.062;34.834;2022-10-30T00:17:38;100581.72;;;25.66;59.80
75938;BME280;64615;32.062;34.834;2022-10-30T00:20:06;100584.16;;;25.67;59.51
75938;BME280;64615;32.062;34.834;2022-10-30T00:22:33;100586.63;;;25.69;59.81
75938;BME280;64615;32.062;34.834;2022-10-30T00:24:59;100582.53;;;25.66;59.50
75938;BME280;64615;32.062;34.834;2022-10-30T00:27:25;100584.97;;;25.68;59.51
75938;BME280;64615;32.062;34.834;2022-10-30T00:29:51;100579.81;;;25.66;59.45
75938;BME280;64615;32.062;34.834;2022-10-30T00:32:16;100578.72;;;25.67;59.46
75938;BME280;64615;32.062;34.834;2022-10-30T00:34:42;100586.88;;;25.67;59.70
75938;BME280;64615;32.062;34.834;2022-10-30T00:37:08;100581.44;;;25.67;59.43
75938;BME280;64615;32.062;34.834;2022-10-30T00:39:33;100578.16;;;25.65;59.84
75938;BME280;64615;32.062;34.834;2022-10-30T00:41:59;100575.19;;;25.62;59.53
75938;BME280;64615;32.062;34.834;2022-10-30T00:47:52;100582.00;;;25.59;59.72
75938;BME280;64615;32.062;34.834;2022-10-30T00:50:12;100575.22;;;25.57;60.03
75938;BME280;64615;32.062;34.834;2022-10-30T00:52:43;100576.31;;;25.56;59.87
75938;BME280;64615;32.062;34.834;2022-10-30T00:55:14;100578.22;;;25.55;59.85
75938;BME280;64615;32.062;34.834;2022-10-30T00:57:41;100578.22;;;25.55;59.75
75938;BME280;64615;32.062;34.834;2022-10-30T01:00:09;100578.22;;;25.55;60.14
75938;BME280;64615;32.062;34.834;2022-10-30T01:02:35;100584.50;;;25.56;60.04
75938;BME280;64615;32.062;34.834;2022-10-30T01:05:02;100580.41;;;25.58;59.85
75938;BME280;64615;32.062;34.834;2022-10-30T01:07:28;100582.84;;;25.60;59.57
75938;BME280;64615;32.062;34.834;2022-10-30T01:09:54;100579.00;;;25.61;59.66
75938;BME280;64615;32.062;34.834;2022-10-30T01:12:20;100577.09;;;25.61;59.79
75938;BME280;64615;32.062;34.834;2022-10-30T01:14:49;100585.00;;;25.63;60.04
75938;BME280;64615;32.062;34.834;2022-10-30T01:36:41;100577.47;;;24.40;61.65
75938;BME280;64615;32.062;34.834;2022-10-30T01:39:12;100567.63;;;23.88;64.87
75938;BME280;64615;32.062;34.834;2022-10-30T01:41:38;100575.81;;;24.08;66.54
75938;BME280;64615;32.062;34.834;2022-10-30T01:44:08;100573.13;;;24.24;67.04
75938;BME280;64615;32.062;34.834;2022-10-30T01:46:57;100571.22;;;24.55;65.87
75938;BME280;64615;32.062;34.834;2022-10-30T01:54:51;100567.13;;;23.86;67.13
75938;BME280;64615;32.062;34.834;2022-10-30T02:00:09;100568.22;;;24.36;66.15
75938;BME280;64615;32.062;34.834;2022-10-30T02:02:35;100575.25;;;24.67;64.57
75938;BME280;64615;32.062;34.834;2022-10-30T02:05:02;100566.78;;;24.94;63.32
75938;BME280;64615;32.062;34.834;2022-10-30T02:07:29;100578.44;;;25.10;62.33
75938;BME280;64615;32.062;34.834;2022-10-30T02:09:55;100566.16;;;25.17;62.51
75938;BME280;64615;32.062;34.834;2022-10-30T02:12:21;100569.09;;;25.26;61.70
75938;BME280;64615;32.062;34.834;2022-10-30T02:14:51;100575.06;;;25.28;61.67
75938;BME280;64615;32.062;34.834;2022-10-30T02:17:17;100574.78;;;25.29;61.86
75938;BME280;64615;32.062;34.834;2022-10-30T02:19:43;100569.34;;;25.29;61.83
75938;BME280;64615;32.062;34.834;2022-10-30T02:22:09;100578.88;;;25.32;61.53
75938;BME280;64615;32.062;34.834;2022-10-30T02:24:36;100578.06;;;25.31;61.40
75938;BME280;64615;32.062;34.834;2022-10-30T02:27:02;100578.56;;;25.33;61.54
75938;BME280;64615;32.062;34.834;2022-10-30T02:29:28;100571.22;;;25.34;61.16
75938;BME280;64615;32.062;34.834;2022-10-30T02:31:53;100574.50;;;25.36;61.21
75938;BME280;64615;32.062;34.834;2022-10-30T02:34:19;100579.09;;;25.41;61.12
75938;BME280;64615;32.062;34.834;2022-10-30T02:36:45;100578.00;;;25.42;60.63
75938;BME280;64615;32.062;34.834;2022-10-30T02:39:11;100576.09;;;25.42;61.04
75938;BME280;64615;32.062;34.834;2022-10-30T02:41:37;100580.50;;;25.38;61.17
75938;BME280;64615;32.062;34.834;2022-10-30T02:44:03;100577.19;;;25.41;60.70
75938;BME280;64615;32.062;34.834;2022-10-30T02:46:29;100576.91;;;25.43;61.00
75938;BME280;64615;32.062;34.834;2022-10-30T02:48:54;100580.16;;;25.45;60.59
75938;BME280;64615;32.062;34.834;2022-10-30T02:51:20;100576.63;;;25.44;60.74
75938;BME280;64615;32.062;34.834;2022-10-30T02:53:46;100583.16;;;25.48;60.69
75938;BME280;64615;32.062;34.834;2022-10-30T02:56:13;100586.72;;;25.49;60.70
75938;BME280;64615;32.062;34.834;2022-10-30T02:58:40;100582.34;;;25.48;60.90
75938;BME280;64615;32.062;34.834;2022-10-30T03:01:11;100588.59;;;25.53;60.69
75938;BME280;64615;32.062;34.834;2022-10-30T03:03:37;100582.31;;;25.53;61.06
75938;BME280;64615;32.062;34.834;2022-10-30T03:06:05;100587.47;;;25.54;60.82
75938;BME280;64615;32.062;34.834;2022-10-30T03:08:31;100585.84;;;25.53;60.81
75938;BME280;64615;32.062;34.834;2022-10-30T03:11:16;100587.47;;;25.54;61.11
75938;BME280;64615;32.062;34.834;2022-10-30T03:13:43;100584.75;;;25.54;61.19
75938;BME280;64615;32.062;34.834;2022-10-30T03:16:12;100591.31;;;25.58;60.94
75938;BME280;64615;32.062;34.834;2022-10-30T03:18:39;100586.69;;;25.59;60.97
75938;BME280;64615;32.062;34.834;2022-10-30T03:21:05;100589.41;;;25.59;61.09
75938;BME280;64615;32.062;34.834;2022-10-30T03:23:32;100593.75;;;25.60;61.11
75938;BME280;64615;32.062;34.834;2022-10-30T03:25:58;100592.38;;;25.62;60.82
75938;BME280;64615;32.062;34.834;2022-10-30T03:28:25;100601.09;;;25.64;60.94
75938;BME280;64615;32.062;34.834;2022-10-30T03:30:58;100589.03;;;25.70;61.30
75938;BME280;64615;32.062;34.834;2022-10-30T03:33:24;100602.13;;;25.73;61.11
75938;BME280;64615;32.062;34.834;2022-10-30T03:35:50;100600.22;;;25.74;61.19
75938;BME280;64615;32.062;34.834;2022-10-30T03:38:15;100604.03;;;25.73;60.93
75938;BME280;64615;32.062;34.834;2022-10-30T03:40:41;100607.59;;;25.73;61.18
75938;BME280;64615;32.062;34.834;2022-10-30T03:43:07;100608.41;;;25.74;60.89
75938;BME280;64615;32.062;34.834;2022-10-30T03:45:33;100606.75;;;25.73;60.86
75938;BME280;64615;32.062;34.834;2022-10-30T03:48:04;100609.22;;;25.75;60.45
75938;BME280;64615;32.062;34.834;2022-10-30T03:50:30;100602.94;;;25.74;60.78
75938;BME280;64615;32.062;34.834;2022-10-30T03:52:56;100607.59;;;25.73;60.60
75938;BME280;64615;32.062;34.834;2022-10-30T03:55:23;100612.19;;;25.78;60.98
75938;BME280;64615;32.062;34.834;2022-10-30T03:57:49;100614.66;;;25.75;61.04
75938;BME280;64615;32.062;34.834;2022-10-30T04:00:15;100606.50;;;25.75;60.80
75938;BME280;64615;32.062;34.834;2022-10-30T04:02:48;100607.59;;;25.73;61.03
75938;BME280;64615;32.062;34.834;2022-10-30T04:05:16;100616.56;;;25.74;61.02
75938;BME280;64615;32.062;34.834;2022-10-30T04:07:42;100619.00;;;25.76;60.78
75938;BME280;64615;32.062;34.834;2022-10-30T04:10:09;100626.13;;;25.71;61.04
75938;BME280;64615;32.062;34.834;2022-10-30T04:12:35;100625.03;;;25.72;61.14
75938;BME280;64615;32.062;34.834;2022-10-30T04:15:00;100630.47;;;25.72;61.21
75938;BME280;64615;32.062;34.834;2022-10-30T04:17:26;100623.41;;;25.71;60.63
75938;BME280;64615;32.062;34.834;2022-10-30T04:19:52;100629.81;;;25.96;60.25
75938;BME280;64615;32.062;34.834;2022-10-30T04:22:18;100624.28;;;26.06;60.65
75938;BME280;64615;32.062;34.834;2022-10-30T04:24:43;100627.16;;;26.20;59.89
75938;BME280;64615;32.062;34.834;2022-10-30T04:27:10;100630.13;;;26.28;60.18
75938;BME280;64615;32.062;34.834;2022-10-30T04:29:37;100634.81;;;26.23;60.55
75938;BME280;64615;32.062;34.834;2022-10-30T04:32:03;100634.25;;;26.21;60.89
75938;BME280;64615;32.062;34.834;2022-10-30T04:34:29;100639.47;;;26.22;61.59
75938;BME280;64615;32.062;34.834;2022-10-30T04:36:55;100637.31;;;26.14;60.44
75938;BME280;64615;32.062;34.834;2022-10-30T04:39:20;100643.84;;;26.13;60.88
75938;BME280;64615;32.062;34.834;2022-10-30T04:41:46;100636.72;;;26.17;61.41
75938;BME280;64615;32.062;34.834;2022-10-30T04:44:11;100644.34;;;26.20;62.03
75938;BME280;64615;32.062;34.834;2022-10-30T04:46:37;100642.44;;;26.26;60.93
75938;BME280;64615;32.062;34.834;2022-10-30T04:49:03;100646.75;;;26.32;61.77
75938;BME280;64615;32.062;34.834;2022-10-30T04:51:28;100657.91;;;26.35;61.68
75938;BME280;64615;32.062;34.834;2022-10-30T04:53:54;100659.78;;;26.40;61.06
75938;BME280;64615;32.062;34.834;2022-10-30T04:56:20;100657.47;;;26.18;60.03
75938;BME280;64615;32.062;34.834;2022-10-30T04:58:45;100648.84;;;26.06;60.37
75938;BME280;64615;32.062;34.834;2022-10-30T05:01:11;100653.78;;;25.99;60.14
75938;BME280;64615;32.062;34.834;2022-10-30T05:03:37;100656.75;;;26.02;60.27
75938;BME280;64615;32.062;34.834;2022-10-30T05:06:05;100655.94;;;26.02;59.71
75938;BME280;64615;32.062;34.834;2022-10-30T05:08:32;100656.56;;;25.89;59.58
75938;BME280;64615;32.062;34.834;2022-10-30T05:10:58;100656.81;;;25.92;59.98
75938;BME280;64615;32.062;34.834;2022-10-30T05:13:27;100658.69;;;25.97;59.65
75938;BME280;64615;32.062;34.834;2022-10-30T05:15:53;100659.31;;;25.89;59.87
75938;BME280;64615;32.062;34.834;2022-10-30T05:18:19;100664.16;;;25.97;59.73
75938;BME280;64615;32.062;34.834;2022-10-30T05:20:46;100671.47;;;26.01;59.71
75938;BME280;64615;32.062;34.834;2022-10-30T05:23:12;100663.03;;;26.03;59.52
75938;BME280;64615;32.062;34.834;2022-10-30T05:25:37;100675.56;;;26.04;59.22
75938;BME280;64615;32.062;34.834;2022-10-30T05:28:05;100671.19;;;26.08;59.65
75938;BME280;64615;32.062;34.834;2022-10-30T05:30:33;100675.84;;;26.02;59.95
75938;BME280;64615;32.062;34.834;2022-10-30T05:33:00;100683.22;;;26.02;59.29
75938;BME280;64615;32.062;34.834;2022-10-30T05:35:27;100678.34;;;25.99;59.32
75938;BME280;64615;32.062;34.834;2022-10-30T05:37:54;100691.97;;;25.99;59.52
75938;BME280;64615;32.062;34.834;2022-10-30T05:40:19;100681.56;;;26.06;59.32
75938;BME280;64615;32.062;34.834;2022-10-30T05:42:46;100686.66;;;26.17;58.84
75938;BME280;64615;32.062;34.834;2022-10-30T05:45:12;100687.19;;;26.20;59.22
75938;BME280;64615;32.062;34.834;2022-10-30T05:47:38;100689.66;;;26.21;59.13
75938;BME280;64615;32.062;34.834;2022-10-30T05:50:04;100683.63;;;26.29;58.70
75938;BME280;64615;32.062;34.834;2022-10-30T05:52:30;100692.78;;;26.43;58.44
75938;BME280;64615;32.062;34.834;2022-10-30T05:54:55;100696.09;;;26.40;58.74
75938;BME280;64615;32.062;34.834;2022-10-30T05:57:21;100689.78;;;26.45;58.52
75938;BME280;64615;32.062;34.834;2022-10-30T05:59:47;100697.94;;;26.50;58.20
75938;BME280;64615;32.062;34.834;2022-10-30T06:02:12;100693.03;;;26.47;58.57
75938;BME280;64615;32.062;34.834;2022-10-30T06:04:38;100692.47;;;26.50;58.59
75938;BME280;64615;32.062;34.834;2022-10-30T06:07:04;100685.31;;;26.54;58.04
75938;BME280;64615;32.062;34.834;2022-10-30T06:09:30;100691.88;;;26.58;58.30
75938;BME280;64615;32.062;34.834;2022-10-30T06:11:56;100694.06;;;26.56;58.30
75938;BME280;64615;32.062;34.834;2022-10-30T06:14:22;100688.41;;;26.47;58.71
75938;BME280;64615;32.062;34.834;2022-10-30T06:16:49;100690.81;;;26.49;58.85
75938;BME280;64615;32.062;34.834;2022-10-30T06:19:14;100693.78;;;26.58;58.10
75938;BME280;64615;32.062;34.834;2022-10-30T06:21:40;100690.75;;;26.59;58.67
75938;BME280;64615;32.062;34.834;2022-10-30T06:24:06;100696.66;;;26.71;58.18
75938;BME280;64615;32.062;34.834;2022-10-30T06:26:31;100698.47;;;26.52;58.65
75938;BME280;64615;32.062;34.834;2022-10-30T06:28:57;100698.81;;;26.40;59.46
75938;BME280;64615;32.062;34.834;2022-10-30T06:31:22;100693.94;;;26.37;59.89
75938;BME280;64615;32.062;34.834;2022-10-30T06:33:48;100699.44;;;26.32;59.76
75938;BME280;64615;32.062;34.834;2022-10-30T06:36:14;100692.38;;;26.26;60.09
75938;BME280;64615;32.062;34.834;2022-10-30T06:38:42;100704.34;;;26.30;60.17
75938;BME280;64615;32.062;34.834;2022-10-30T06:41:07;100702.66;;;26.39;59.61
75938;BME280;64615;32.062;34.834;2022-10-30T06:43:33;100698.47;;;26.52;59.96
75938;BME280;64615;32.062;34.834;2022-10-30T06:45:59;100694.25;;;26.65;59.50
75938;BME280;64615;32.062;34.834;2022-10-30T06:48:24;100702.97;;;26.67;59.36
75938;BME280;64615;32.062;34.834;2022-10-30T06:50:54;100693.28;;;26.50;60.54
75938;BME280;64615;32.062;34.834;2022-10-30T06:53:20;100693.88;;;26.47;61.06
75938;BME280;64615;32.062;34.834;2022-10-30T06:55:56;100694.69;;;26.48;61.25
75938;BME280;64615;32.062;34.834;2022-10-30T06:58:23;100684.03;;;26.46;60.78
75938;BME280;64615;32.062;34.834;2022-10-30T07:00:49;100693.50;;;26.54;60.47
75938;BME280;64615;32.062;34.834;2022-10-30T07:03:14;100694.88;;;26.56;60.30
75938;BME280;64615;32.062;34.834;2022-10-30T07:05:40;100695.38;;;26.64;60.57
75938;BME280;64615;32.062;34.834;2022-10-30T07:08:06;100688.78;;;26.65;60.77
75938;BME280;64615;32.062;34.834;2022-10-30T07:10:31;100683.72;;;26.53;60.97
75938;BME280;64615;32.062;34.834;2022-10-30T07:12:57;100689.22;;;26.48;61.12
75938;BME280;64615;32.062;34.834;2022-10-30T07:15:24;100692.75;;;26.48;61.05
75938;BME280;64615;32.062;34.834;2022-10-30T07:17:51;100695.47;;;26.48;60.91
75938;BME280;64615;32.062;34.834;2022-10-30T07:20:17;100685.69;;;26.47;60.90
75938;BME280;64615;32.062;34.834;2022-10-30T07:22:44;100696.63;;;26.42;61.12
75938;BME280;64615;32.062;34.834;2022-10-30T07:25:09;100693.59;;;26.44;60.41
75938;BME280;64615;32.062;34.834;2022-10-30T07:27:43;100690.63;;;26.40;60.78
75938;BME280;64615;32.062;34.834;2022-10-30T07:30:10;100694.19;;;26.41;60.72
75938;BME280;64615;32.062;34.834;2022-10-30T07:32:36;100697.19;;;26.39;60.69
75938;BME280;64615;32.062;34.834;2022-10-30T07:35:02;100694.75;;;26.38;60.67
75938;BME280;64615;32.062;34.834;2022-10-30T07:37:28;100698.28;;;26.38;60.33
75938;BME280;64615;32.062;34.834;2022-10-30T07:39:54;100689.31;;;26.38;60.79
75938;BME280;64615;32.062;34.834;2022-10-30T07:42:19;100694.19;;;26.41;60.60
75938;BME280;64615;32.062;34.834;2022-10-30T07:44:45;100691.19;;;26.42;60.73
75938;BME280;64615;32.062;34.834;2022-10-30T07:47:11;100689.53;;;26.41;60.43
75938;BME280;64615;32.062;34.834;2022-10-30T07:49:36;100688.72;;;26.41;60.10
75938;BME280;64615;32.062;34.834;2022-10-30T07:52:02;100683.53;;;26.39;60.25
75938;BME280;64615;32.062;34.834;2022-10-30T07:54:28;100687.09;;;26.40;60.27
75938;BME280;64615;32.062;34.834;2022-10-30T07:56:53;100686.00;;;26.41;60.21
75938;BME280;64615;32.062;34.834;2022-10-30T07:59:19;100683.25;;;26.41;59.88
75938;BME280;64615;32.062;34.834;2022-10-30T08:01:45;100685.13;;;26.45;60.34
75938;BME280;64615;32.062;34.834;2022-10-30T08:04:10;100672.03;;;26.47;60.22
75938;BME280;64615;32.062;34.834;2022-10-30T08:06:39;100673.41;;;26.45;60.00
75938;BME280;64615;32.062;34.834;2022-10-30T08:09:04;100675.63;;;26.43;60.21
75938;BME280;64615;32.062;34.834;2022-10-30T08:11:30;100672.34;;;26.41;59.88
75938;BME280;64615;32.062;34.834;2022-10-30T08:13:56;100671.81;;;26.39;60.34
75938;BME280;64615;32.062;34.834;2022-10-30T08:16:21;100665.78;;;26.42;60.20
75938;BME280;64615;32.062;34.834;2022-10-30T08:18:47;100664.69;;;26.43;60.00
75938;BME280;64615;32.062;34.834;2022-10-30T08:21:13;100668.44;;;26.52;60.07
75938;BME280;64615;32.062;34.834;2022-10-30T08:23:38;100664.34;;;26.49;60.35
75938;BME280;64615;32.062;34.834;2022-10-30T08:26:04;100663.25;;;26.50;60.20
75938;BME280;64615;32.062;34.834;2022-10-30T08:28:30;100659.75;;;26.45;59.76
75938;BME280;64615;32.062;34.834;2022-10-30T08:30:57;100655.91;;;26.46;59.50
75938;BME280;64615;32.062;34.834;2022-10-30T08:33:23;100654.53;;;26.48;59.12
75938;BME280;64615;32.062;34.834;2022-10-30T08:35:51;100653.97;;;26.80;59.01
75938;BME280;64615;32.062;34.834;2022-10-30T08:38:17;100654.84;;;27.28;58.47
75938;BME280;64615;32.062;34.834;2022-10-30T08:40:43;100658.69;;;27.27;58.42
75938;BME280;64615;32.062;34.834;2022-10-30T08:43:09;100652.50;;;27.17;58.65
75938;BME280;64615;32.062;34.834;2022-10-30T08:45:35;100649.00;;;27.16;58.71
75938;BME280;64615;32.062;34.834;2022-10-30T08:48:03;100652.09;;;27.28;58.68
75938;BME280;64615;32.062;34.834;2022-10-30T08:50:30;100651.06;;;27.24;59.14
75938;BME280;64615;32.062;34.834;2022-10-30T08:52:59;100646.94;;;27.27;58.85
75938;BME280;64615;32.062;34.834;2022-10-30T08:55:26;100647.47;;;27.29;58.67
75938;BME280;64615;32.062;34.834;2022-10-30T08:57:51;100639.59;;;27.22;57.66
75938;BME280;64615;32.062;34.834;2022-10-30T09:00:17;100645.19;;;27.12;56.52
75938;BME280;64615;32.062;34.834;2022-10-30T09:02:43;100639.59;;;27.22;57.02
75938;BME280;64615;32.062;34.834;2022-10-30T09:05:09;100623.59;;;27.16;56.80
75938;BME280;64615;32.062;34.834;2022-10-30T09:07:35;100636.13;;;27.17;54.79
75938;BME280;64615;32.062;34.834;2022-10-30T09:10:01;100632.47;;;27.50;54.29
75938;BME280;64615;32.062;34.834;2022-10-30T09:12:26;100628.94;;;27.68;53.11
75938;BME280;64615;32.062;34.834;2022-10-30T09:14:52;100636.97;;;27.60;53.27
75938;BME280;64615;32.062;34.834;2022-10-30T09:17:18;100633.69;;;27.81;51.34
75938;BME280;64615;32.062;34.834;2022-10-30T09:19:44;100626.94;;;27.55;51.33
75938;BME280;64615;32.062;34.834;2022-10-30T09:22:09;100627.44;;;27.33;50.96
75938;BME280;64615;32.062;34.834;2022-10-30T09:24:35;100631.41;;;27.22;51.57
75938;BME280;64615;32.062;34.834;2022-10-30T09:27:01;100626.94;;;27.08;52.08
75938;BME280;64615;32.062;34.834;2022-10-30T09:29:27;100626.09;;;25.77;52.05
75938;BME280;64615;32.062;34.834;2022-10-30T09:31:55;100632.06;;;25.19;57.16
75938;BME280;64615;32.062;34.834;2022-10-30T09:34:21;100632.88;;;25.15;56.30
75938;BME280;64615;32.062;34.834;2022-10-30T09:36:46;100632.16;;;24.54;55.82
75938;BME280;64615;32.062;34.834;2022-10-30T09:39:13;100632.94;;;24.79;60.16
75938;BME280;64615;32.062;34.834;2022-10-30T09:52:52;100631.09;;;24.55;60.46
75938;BME280;64615;32.062;34.834;2022-10-30T09:55:32;100621.50;;;24.01;56.80
75938;BME280;64615;32.062;34.834;2022-10-30T09:58:23;100616.34;;;24.15;61.17
75938;BME280;64615;32.062;34.834;2022-10-30T10:05:57;100618.25;;;24.04;61.83
75938;BME280;64615;32.062;34.834;2022-10-30T10:08:52;100622.91;;;24.44;62.50
75938;BME280;64615;32.062;34.834;2022-10-30T10:11:25;100614.69;;;23.99;59.16
75938;BME280;64615;32.062;34.834;2022-10-30T10:14:11;100611.44;;;24.02;62.44
75938;BME280;64615;32.062;34.834;2022-10-30T10:16:42;100619.38;;;24.39;62.63
75938;BME280;64615;32.062;34.834;2022-10-30T10:21:58;100618.78;;;23.86;62.57
75938;BME280;64615;32.062;34.834;2022-10-30T10:24:35;100621.56;;;24.27;63.03
75938;BME280;64615;32.062;34.834;2022-10-30T10:30:12;100613.56;;;23.75;62.37
75938;BME280;64615;32.062;34.834;2022-10-30T10:51:40;100616.13;;;24.27;63.66
75938;BME280;64615;32.062;34.834;2022-10-30T10:56:46;100613.28;;;23.71;63.17
75938;BME280;64615;32.062;34.834;2022-10-30T10:59:13;100618.78;;;24.06;64.15
75938;BME280;64615;32.062;34.834;2022-10-30T11:01:48;100623.19;;;24.38;64.02
75938;BME280;64615;32.062;34.834;2022-10-30T11:04:44;100618.97;;;23.64;59.91
75938;BME280;64615;32.062;34.834;2022-10-30T11:07:25;100624.72;;;23.88;64.49
75938;BME280;64615;32.062;34.834;2022-10-30T11:09:55;100617.47;;;24.19;64.54
75938;BME280;64615;32.062;34.834;2022-10-30T11:12:33;100617.44;;;24.14;61.80
75938;BME280;64615;32.062;34.834;2022-10-30T11:15:25;100616.75;;;23.51;62.50
75938;BME280;64615;32.062;34.834;2022-10-30T11:18:03;100620.38;;;23.97;64.99
75938;BME280;64615;32.062;34.834;2022-10-30T11:23:29;100617.94;;;23.76;61.26
75938;BME280;64615;32.062;34.834;2022-10-30T11:25:55;100609.75;;;23.71;64.64
75938;BME280;64615;32.062;34.834;2022-10-30T11:28:48;100611.72;;;24.11;64.95
75938;BME280;64615;32.062;34.834;2022-10-30T11:31:21;100617.19;;;24.21;61.98
75938;BME280;64615;32.062;34.834;2022-10-30T11:33:48;100620.28;;;23.47;60.70
75938;BME280;64615;32.062;34.834;2022-10-30T11:36:16;100628.53;;;23.82;65.07
75938;BME280;64615;32.062;34.834;2022-10-30T11:38:42;100626.13;;;24.11;65.57
75938;BME280;64615;32.062;34.834;2022-10-30T11:41:08;100629.47;;;24.33;63.20
75938;BME280;64615;32.062;34.834;2022-10-30T11:43:38;100634.44;;;23.54;61.29
75938;BME280;64615;32.062;34.834;2022-10-30T11:46:07;100627.44;;;23.83;65.41
75938;BME280;64615;32.062;34.834;2022-10-30T11:48:37;100622.03;;;24.14;65.43
75938;BME280;64615;32.062;34.834;2022-10-30T11:51:04;100637.63;;;24.38;64.27
75938;BME280;64615;32.062;34.834;2022-10-30T11:53:39;100628.59;;;24.94;62.10
75938;BME280;64615;32.062;34.834;2022-10-30T11:56:14;100639.97;;;25.16;61.75
75938;BME280;64615;32.062;34.834;2022-10-30T11:58:44;100638.00;;;25.37;61.70
75938;BME280;64615;32.062;34.834;2022-10-30T12:01:21;100641.19;;;25.54;61.25
75938;BME280;64615;32.062;34.834;2022-10-30T12:03:48;100639.56;;;25.53;60.63
75938;BME280;64615;32.062;34.834;2022-10-30T12:09:13;100640.91;;;25.60;60.36
75938;BME280;64615;32.062;34.834;2022-10-30T12:11:44;100643.91;;;25.64;59.90
75938;BME280;64615;32.062;34.834;2022-10-30T12:16:45;100648.75;;;25.72;59.28
75938;BME280;64615;32.062;34.834;2022-10-30T12:19:12;100642.19;;;25.78;59.39
75938;BME280;64615;32.062;34.834;2022-10-30T12:21:48;100649.81;;;25.76;59.90
75938;BME280;64615;32.062;34.834;2022-10-30T12:24:29;100653.06;;;25.83;59.72
75938;BME280;64615;32.062;34.834;2022-10-30T12:26:59;100652.78;;;25.85;59.39
75938;BME280;64615;32.062;34.834;2022-10-30T12:29:37;100651.66;;;25.86;59.51
75938;BME280;64615;32.062;34.834;2022-10-30T12:32:08;100649.47;;;25.88;59.93
75938;BME280;64615;32.062;34.834;2022-10-30T12:34:44;100659.53;;;25.92;59.97
75938;BME280;64615;32.062;34.834;2022-10-30T12:37:59;100660.31;;;25.98;60.02
75938;BME280;64615;32.062;34.834;2022-10-30T12:40:28;100650.50;;;25.97;60.08
75938;BME280;64615;32.062;34.834;2022-10-30T12:45:58;100666.91;;;25.92;60.78
75938;BME280;64615;32.062;34.834;2022-10-30T12:48:32;100667.44;;;25.94;60.40
75938;BME280;64615;32.062;34.834;2022-10-30T12:51:25;100659.84;;;25.91;60.88
75938;BME280;64615;32.062;34.834;2022-10-30T12:54:03;100668.03;;;25.91;60.30
75938;BME280;64615;32.062;34.834;2022-10-30T12:56:34;100663.09;;;25.93;60.13
75938;BME280;64615;32.062;34.834;2022-10-30T12:59:17;100663.38;;;25.91;59.82
75938;BME280;64615;32.062;34.834;2022-10-30T13:01:54;100675.94;;;25.87;59.31
75938;BME280;64615;32.062;34.834;2022-10-30T13:04:34;100665.31;;;25.91;59.96
75938;BME280;64615;32.062;34.834;2022-10-30T13:12:26;100664.19;;;25.92;59.55
75938;BME280;64615;32.062;34.834;2022-10-30T13:14:59;100673.22;;;25.87;59.31
75938;BME280;64615;32.062;34.834;2022-10-30T13:17:28;100668.03;;;25.86;59.21
75938;BME280;64615;32.062;34.834;2022-10-30T13:19:54;100682.44;;;25.91;59.79
75938;BME280;64615;32.062;34.834;2022-10-30T13:44:48;100699.94;;;25.90;59.30
75938;BME280;64615;32.062;34.834;2022-10-30T13:48:01;100704.28;;;25.91;59.26
75938;BME280;64615;32.062;34.834;2022-10-30T13:53:18;100702.66;;;25.90;59.53
75938;BME280;64615;32.062;34.834;2022-10-30T13:55:47;100708.41;;;25.84;59.60
75938;BME280;64615;32.062;34.834;2022-10-30T14:06:23;100706.22;;;25.81;59.52
75938;BME280;64615;32.062;34.834;2022-10-30T14:09:05;100711.16;;;25.84;59.83
75938;BME280;64615;32.062;34.834;2022-10-30T14:11:35;100705.97;;;25.82;59.35
75938;BME280;64615;32.062;34.834;2022-10-30T14:16:44;100714.72;;;25.79;59.75
75938;BME280;64615;32.062;34.834;2022-10-30T14:19:14;100710.91;;;25.75;59.61
75938;BME280;64615;32.062;34.834;2022-10-30T14:21:52;100719.38;;;25.73;59.62
75938;BME280;64615;32.062;34.834;2022-10-30T14:24:22;100724.84;;;25.73;60.23
75938;BME280;64615;32.062;34.834;2022-10-30T14:37:05;100726.47;;;25.75;60.37
75938;BME280;64615;32.062;34.834;2022-10-30T14:39:40;100731.13;;;25.69;60.90
75938;BME280;64615;32.062;34.834;2022-10-30T14:42:35;100738.47;;;25.68;60.99
75938;BME280;64615;32.062;34.834;2022-10-30T14:45:16;100734.91;;;25.73;61.22
75938;BME280;64615;32.062;34.834;2022-10-30T14:48:14;100738.72;;;25.77;60.81
75938;BME280;64615;32.062;34.834;2022-10-30T14:58:39;100752.41;;;25.62;60.95
75938;BME280;64615;32.062;34.834;2022-10-30T15:12:14;100747.47;;;26.28;62.00
75938;BME280;64615;32.062;34.834;2022-10-30T15:14:52;100763.75;;;26.43;63.97
75938;BME280;64615;32.062;34.834;2022-10-30T15:17:50;100764.78;;;26.58;63.48
75938;BME280;64615;32.062;34.834;2022-10-30T15:20:23;100755.91;;;26.71;63.09
75938;BME280;64615;32.062;34.834;2022-10-30T15:22:59;100758.91;;;26.74;63.76
75938;BME280;64615;32.062;34.834;2022-10-30T15:25:33;100763.56;;;26.74;63.88